sensor_id;sensor_type;location;lat;lon;timestamp;pressure;altitude;pressure_sealevel;temperature;humidity
78843;BME280;70542;53.774;-0.352;2023-10-13T00:03:23;100580;;;13;49
78843;BME280;70542;53.774;-0.352;2023-10-13T00:09:01;100580;;;15;47
78843;BME280;70542;53.774;-0.352;2023-10-13T00:14:40;100560;;;14;47
78843;BME280;70542;53.774;-0.352;2023-10-13T00:20:19;100550;;;14;48
78843;BME280;70542;53.774;-0.352;2023-10-13T00:26:02;100540;;;15;46
78843;BME280;70542;53.774;-0.352;2023-10-13T00:31:46;100530;;;15;47
78843;BME280;70542;53.774;-0.352;2023-10-13T00:37:25;100520;;;14;49
78843;BME280;70542;53.774;-0.352;2023-10-13T00:43:03;100510;;;14;49
78843;BME280;70542;53.774;-0.352;2023-10-13T00:48:47;100490;;;16;48
78843;BME280;70542;53.774;-0.352;2023-10-13T00:54:25;100470;;;14;49
78843;BME280;70542;53.774;-0.352;2023-10-13T01:00:06;100460;;;16;47
78843;BME280;70542;53.774;-0.352;2023-10-13T01:05:45;100450;;;15;48
78843;BME280;70542;53.774;-0.352;2023-10-13T01:11:24;100440;;;16;46
78843;BME280;70542;53.774;-0.352;2023-10-13T01:17:03;100420;;;15;48
78843;BME280;70542;53.774;-0.352;2023-10-13T01:22:42;100420;;;17;45
78843;BME280;70542;53.774;-0.352;2023-10-13T01:28:21;100400;;;17;45
78843;BME280;70542;53.774;-0.352;2023-10-13T01:34:00;100380;;;17;46
78843;BME280;70542;53.774;-0.352;2023-10-13T01:39:39;100370;;;15;47
78843;BME280;70542;53.774;-0.352;2023-10-13T01:45:23;100350;;;16;46
78843;BME280;70542;53.774;-0.352;2023-10-13T01:51:07;100340;;;15;48
78843;BME280;70542;53.774;-0.352;2023-10-13T01:56:47;100320;;;17;45
78843;BME280;70542;53.774;-0.352;2023-10-13T02:02:25;100300;;;15;48
78843;BME280;70542;53.774;-0.352;2023-10-13T02:08:04;100280;;;15;47
78843;BME280;70542;53.774;-0.352;2023-10-13T02:13:44;100270;;;15;49
78843;BME280;70542;53.774;-0.352;2023-10-13T02:19:22;100260;;;17;46
78843;BME280;70542;53.774;-0.352;2023-10-13T02:25:01;100240;;;15;48
78843;BME280;70542;53.774;-0.352;2023-10-13T02:30:41;100220;;;17;46
78843;BME280;70542;53.774;-0.352;2023-10-13T02:36:21;100200;;;17;45
78843;BME280;70542;53.774;-0.352;2023-10-13T02:41:59;100180;;;16;46
78843;BME280;70542;53.774;-0.352;2023-10-13T02:47:38;100160;;;16;47
78843;BME280;70542;53.774;-0.352;2023-10-13T02:53:17;100150;;;16;47
78843;BME280;70542;53.774;-0.352;2023-10-13T02:58:55;100120;;;16;47
78843;BME280;70542;53.774;-0.352;2023-10-13T03:04:34;100100;;;16;46
78843;BME280;70542;53.774;-0.352;2023-10-13T03:10:13;100080;;;17;46
78843;BME280;70542;53.774;-0.352;2023-10-13T03:15:52;100070;;;17;46
78843;BME280;70542;53.774;-0.352;2023-10-13T03:21:30;100040;;;17;46
78843;BME280;70542;53.774;-0.352;2023-10-13T03:27:09;100030;;;17;45
78843;BME280;70542;53.774;-0.352;2023-10-13T03:32:48;100020;;;16;48
78843;BME280;70542;53.774;-0.352;2023-10-13T03:38:26;99990;;;16;47
78843;BME280;70542;53.774;-0.352;2023-10-13T03:44:05;99970;;;18;45
78843;BME280;70542;53.774;-0.352;2023-10-13T03:49:44;99960;;;16;47
78843;BME280;70542;53.774;-0.352;2023-10-13T03:55:23;99940;;;15;48
78843;BME280;70542;53.774;-0.352;2023-10-13T04:01:02;99910;;;17;45
78843;BME280;70542;53.774;-0.352;2023-10-13T04:06:41;99900;;;15;48
78843;BME280;70542;53.774;-0.352;2023-10-13T04:12:20;99870;;;16;49
78843;BME280;70542;53.774;-0.352;2023-10-13T04:17:59;99850;;;16;48
78843;BME280;70542;53.774;-0.352;2023-10-13T04:23:38;99830;;;16;47
78843;BME280;70542;53.774;-0.352;2023-10-13T04:29:16;99810;;;16;49
78843;BME280;70542;53.774;-0.352;2023-10-13T04:34:56;99790;;;17;45
78843;BME280;70542;53.774;-0.352;2023-10-13T04:40:40;99770;;;19;44
78843;BME280;70542;53.774;-0.352;2023-10-13T04:46:19;99760;;;19;43
78843;BME280;70542;53.774;-0.352;2023-10-13T04:51:59;99750;;;18;44
78843;BME280;70542;53.774;-0.352;2023-10-13T04:57:38;99740;;;18;44
78843;BME280;70542;53.774;-0.352;2023-10-13T05:03:16;99710;;;17;44
78843;BME280;70542;53.774;-0.352;2023-10-13T05:08:55;99700;;;18;45
78843;BME280;70542;53.774;-0.352;2023-10-13T05:14:34;99690;;;19;43
78843;BME280;70542;53.774;-0.352;2023-10-13T05:20:13;99670;;;18;45
78843;BME280;70542;53.774;-0.352;2023-10-13T05:25:52;99670;;;19;43
78843;BME280;70542;53.774;-0.352;2023-10-13T05:31:30;99640;;;16;47
78843;BME280;70542;53.774;-0.352;2023-10-13T05:37:09;99630;;;19;43
78843;BME280;70542;53.774;-0.352;2023-10-13T05:42:53;99620;;;19;42
78843;BME280;70542;53.774;-0.352;2023-10-13T05:48:31;99610;;;20;43
78843;BME280;70542;53.774;-0.352;2023-10-13T05:54:10;99600;;;19;44
78843;BME280;70542;53.774;-0.352;2023-10-13T05:59:49;99610;;;19;44
78843;BME280;70542;53.774;-0.352;2023-10-13T06:05:28;99590;;;19;43
78843;BME280;70542;53.774;-0.352;2023-10-13T06:11:07;99580;;;19;44
78843;BME280;70542;53.774;-0.352;2023-10-13T06:16:46;99560;;;18;44
78843;BME280;70542;53.774;-0.352;2023-10-13T06:22:25;99550;;;19;45
78843;BME280;70542;53.774;-0.352;2023-10-13T06:28:03;99560;;;19;45
78843;BME280;70542;53.774;-0.352;2023-10-13T06:33:42;99550;;;19;44
78843;BME280;70542;53.774;-0.352;2023-10-13T06:39:21;99550;;;18;46
78843;BME280;70542;53.774;-0.352;2023-10-13T06:45:01;99540;;;18;46
78843;BME280;70542;53.774;-0.352;2023-10-13T06:50:48;99520;;;18;47
78843;BME280;70542;53.774;-0.352;2023-10-13T06:56:26;99500;;;17;48
78843;BME280;70542;53.774;-0.352;2023-10-13T07:02:05;99510;;;17;48
78843;BME280;70542;53.774;-0.352;2023-10-13T07:07:44;99490;;;18;46
78843;BME280;70542;53.774;-0.352;2023-10-13T07:13:23;99480;;;19;46
78843;BME280;70542;53.774;-0.352;2023-10-13T07:19:02;99500;;;19;46
78843;BME280;70542;53.774;-0.352;2023-10-13T07:24:41;99510;;;17;50
78843;BME280;70542;53.774;-0.352;2023-10-13T07:30:20;99510;;;19;47
78843;BME280;70542;53.774;-0.352;2023-10-13T07:36:01;99500;;;18;48
78843;BME280;70542;53.774;-0.352;2023-10-13T07:41:45;99520;;;17;49
78843;BME280;70542;53.774;-0.352;2023-10-13T07:47:24;99490;;;19;46
78843;BME280;70542;53.774;-0.352;2023-10-13T07:53:03;99480;;;19;46
78843;BME280;70542;53.774;-0.352;2023-10-13T07:58:42;99460;;;19;45
78843;BME280;70542;53.774;-0.352;2023-10-13T08:04:21;99470;;;19;46
78843;BME280;70542;53.774;-0.352;2023-10-13T08:10:00;99500;;;18;49
78843;BME280;70542;53.774;-0.352;2023-10-13T08:15:40;99500;;;17;52
78843;BME280;70542;53.774;-0.352;2023-10-13T08:21:19;99530;;;17;54
78843;BME280;70542;53.774;-0.352;2023-10-13T08:26:58;99530;;;16;56
78843;BME280;70542;53.774;-0.352;2023-10-13T08:32:37;99520;;;15;60
78843;BME280;70542;53.774;-0.352;2023-10-13T08:38:16;99530;;;14;62
78843;BME280;70542;53.774;-0.352;2023-10-13T08:43:58;99530;;;15;60
78843;BME280;70542;53.774;-0.352;2023-10-13T08:49:40;99540;;;15;61
78843;BME280;70542;53.774;-0.352;2023-10-13T08:55:20;99540;;;15;61
78843;BME280;70542;53.774;-0.352;2023-10-13T09:00:59;99560;;;14;61
78843;BME280;70542;53.774;-0.352;2023-10-13T09:06:39;99540;;;16;57
78843;BME280;70542;53.774;-0.352;2023-10-13T09:12:21;99510;;;16;54
78843;BME280;70542;53.774;-0.352;2023-10-13T09:18:05;99510;;;17;54
78843;BME280;70542;53.774;-0.352;2023-10-13T09:23:46;99520;;;15;57
78843;BME280;70542;53.774;-0.352;2023-10-13T09:29:25;99520;;;16;57
78843;BME280;70542;53.774;-0.352;2023-10-13T09:35:05;99510;;;16;55
78843;BME280;70542;53.774;-0.352;2023-10-13T09:40:46;99490;;;18;50
78843;BME280;70542;53.774;-0.352;2023-10-13T09:46:26;99500;;;18;51
78843;BME280;70542;53.774;-0.352;2023-10-13T09:52:06;99520;;;17;54
78843;BME280;70542;53.774;-0.352;2023-10-13T09:57:57;99510;;;17;54
78843;BME280;70542;53.774;-0.352;2023-10-13T10:03:44;99520;;;17;54
78843;BME280;70542;53.774;-0.352;2023-10-13T10:09:27;99530;;;17;53
78843;BME280;70542;53.774;-0.352;2023-10-13T10:15:12;99560;;;17;52
78843;BME280;70542;53.774;-0.352;2023-10-13T10:21:04;99590;;;16;57
78843;BME280;70542;53.774;-0.352;2023-10-13T10:26:51;99580;;;16;59
78843;BME280;70542;53.774;-0.352;2023-10-13T10:32:35;99570;;;15;60
78843;BME280;70542;53.774;-0.352;2023-10-13T10:38:15;99580;;;15;61
78843;BME280;70542;53.774;-0.352;2023-10-13T10:43:54;99600;;;15;61
78843;BME280;70542;53.774;-0.352;2023-10-13T10:49:37;99610;;;16;60
78843;BME280;70542;53.774;-0.352;2023-10-13T10:55:20;99620;;;15;60
78843;BME280;70542;53.774;-0.352;2023-10-13T11:01:05;99610;;;15;62
78843;BME280;70542;53.774;-0.352;2023-10-13T11:06:46;99600;;;16;60
78843;BME280;70542;53.774;-0.352;2023-10-13T11:12:25;99600;;;15;59
78843;BME280;70542;53.774;-0.352;2023-10-13T11:18:04;99610;;;15;60
78843;BME280;70542;53.774;-0.352;2023-10-13T11:23:42;99610;;;15;59
78843;BME280;70542;53.774;-0.352;2023-10-13T11:29:30;99610;;;15;58
78843;BME280;70542;53.774;-0.352;2023-10-13T11:35:09;99600;;;15;57
78843;BME280;70542;53.774;-0.352;2023-10-13T11:40:48;99610;;;16;56
78843;BME280;70542;53.774;-0.352;2023-10-13T11:46:30;99610;;;15;56
78843;BME280;70542;53.774;-0.352;2023-10-13T11:52:09;99590;;;15;56
78843;BME280;70542;53.774;-0.352;2023-10-13T11:57:48;99600;;;15;57
78843;BME280;70542;53.774;-0.352;2023-10-13T12:03:27;99610;;;16;55
78843;BME280;70542;53.774;-0.352;2023-10-13T12:09:07;99620;;;16;53
78843;BME280;70542;53.774;-0.352;2023-10-13T12:14:46;99630;;;16;57
78843;BME280;70542;53.774;-0.352;2023-10-13T12:20:26;99630;;;16;54
78843;BME280;70542;53.774;-0.352;2023-10-13T12:26:05;99630;;;15;56
78843;BME280;70542;53.774;-0.352;2023-10-13T12:31:44;99640;;;14;59
78843;BME280;70542;53.774;-0.352;2023-10-13T12:37:23;99650;;;15;57
78843;BME280;70542;53.774;-0.352;2023-10-13T12:43:03;99660;;;14;59
78843;BME280;70542;53.774;-0.352;2023-10-13T12:48:41;99670;;;13;62
78843;BME280;70542;53.774;-0.352;2023-10-13T12:54:20;99670;;;13;61
78843;BME280;70542;53.774;-0.352;2023-10-13T12:59:59;99680;;;13;61
78843;BME280;70542;53.774;-0.352;2023-10-13T13:05:38;99680;;;12;64
78843;BME280;70542;53.774;-0.352;2023-10-13T13:11:17;99690;;;12;64
78843;BME280;70542;53.774;-0.352;2023-10-13T13:16:56;99690;;;12;66
78843;BME280;70542;53.774;-0.352;2023-10-13T13:22:35;99690;;;11;68
78843;BME280;70542;53.774;-0.352;2023-10-13T13:28:19;99690;;;12;67
78843;BME280;70542;53.774;-0.352;2023-10-13T13:33:57;99710;;;11;67
78843;BME280;70542;53.774;-0.352;2023-10-13T13:39:36;99720;;;12;64
78843;BME280;70542;53.774;-0.352;2023-10-13T13:45:15;99730;;;11;62
78843;BME280;70542;53.774;-0.352;2023-10-13T13:50:54;99720;;;11;61
78843;BME280;70542;53.774;-0.352;2023-10-13T13:56:33;99710;;;11;61
78843;BME280;70542;53.774;-0.352;2023-10-13T14:02:17;99730;;;11;61
78843;BME280;70542;53.774;-0.352;2023-10-13T14:07:55;99740;;;11;61
78843;BME280;70542;53.774;-0.352;2023-10-13T14:13:34;99730;;;12;59
78843;BME280;70542;53.774;-0.352;2023-10-13T14:19:13;99740;;;11;60
78843;BME280;70542;53.774;-0.352;2023-10-13T14:24:52;99740;;;13;57
78843;BME280;70542;53.774;-0.352;2023-10-13T14:30:31;99750;;;12;60
78843;BME280;70542;53.774;-0.352;2023-10-13T14:36:10;99740;;;12;58
78843;BME280;70542;53.774;-0.352;2023-10-13T14:42:13;99730;;;12;58
78843;BME280;70542;53.774;-0.352;2023-10-13T14:47:52;99740;;;12;58
78843;BME280;70542;53.774;-0.352;2023-10-13T14:53:30;99740;;;12;58
78843;BME280;70542;53.774;-0.352;2023-10-13T14:59:09;99740;;;11;59
78843;BME280;70542;53.774;-0.352;2023-10-13T15:04:48;99750;;;13;55
78843;BME280;70542;53.774;-0.352;2023-10-13T15:10:28;99770;;;13;53
78843;BME280;70542;53.774;-0.352;2023-10-13T15:16:13;99760;;;14;50
78843;BME280;70542;53.774;-0.352;2023-10-13T15:21:52;99770;;;14;51
78843;BME280;70542;53.774;-0.352;2023-10-13T15:27:36;99770;;;13;53
78843;BME280;70542;53.774;-0.352;2023-10-13T15:33:15;99770;;;15;50
78843;BME280;70542;53.774;-0.352;2023-10-13T15:38:53;99760;;;14;52
78843;BME280;70542;53.774;-0.352;2023-10-13T15:44:34;99770;;;12;55
78843;BME280;70542;53.774;-0.352;2023-10-13T15:50:13;99760;;;12;56
78843;BME280;70542;53.774;-0.352;2023-10-13T15:55:52;99770;;;11;59
78843;BME280;70542;53.774;-0.352;2023-10-13T16:01:31;99780;;;10;59
78843;BME280;70542;53.774;-0.352;2023-10-13T16:07:10;99770;;;10;60
78843;BME280;70542;53.774;-0.352;2023-10-13T16:12:49;99770;;;12;55
78843;BME280;70542;53.774;-0.352;2023-10-13T16:18:27;99790;;;11;56
78843;BME280;70542;53.774;-0.352;2023-10-13T16:24:06;99800;;;10;58
78843;BME280;70542;53.774;-0.352;2023-10-13T16:29:45;99810;;;11;55
78843;BME280;70542;53.774;-0.352;2023-10-13T16:35:24;99810;;;11;55
78843;BME280;70542;53.774;-0.352;2023-10-13T16:41:03;99810;;;11;53
78843;BME280;70542;53.774;-0.352;2023-10-13T16:46:42;99810;;;11;53
78843;BME280;70542;53.774;-0.352;2023-10-13T16:52:21;99820;;;10;55
78843;BME280;70542;53.774;-0.352;2023-10-13T16:58:00;99820;;;10;53
78843;BME280;70542;53.774;-0.352;2023-10-13T17:03:39;99840;;;11;52
78843;BME280;70542;53.774;-0.352;2023-10-13T17:09:18;99860;;;10;52
78843;BME280;70542;53.774;-0.352;2023-10-13T17:14:57;99860;;;11;52
78843;BME280;70542;53.774;-0.352;2023-10-13T17:20:41;99860;;;11;50
78843;BME280;70542;53.774;-0.352;2023-10-13T17:26:21;99870;;;10;50
78843;BME280;70542;53.774;-0.352;2023-10-13T17:32:00;99870;;;10;51
78843;BME280;70542;53.774;-0.352;2023-10-13T17:37:39;99870;;;10;52
78843;BME280;70542;53.774;-0.352;2023-10-13T17:43:18;99890;;;10;53
78843;BME280;70542;53.774;-0.352;2023-10-13T17:48:57;99890;;;9;52
78843;BME280;70542;53.774;-0.352;2023-10-13T17:54:36;99900;;;10;51
78843;BME280;70542;53.774;-0.352;2023-10-13T18:00:15;99910;;;10;50
78843;BME280;70542;53.774;-0.352;2023-10-13T18:05:59;99910;;;10;50
78843;BME280;70542;53.774;-0.352;2023-10-13T18:11:38;99920;;;10;50
78843;BME280;70542;53.774;-0.352;2023-10-13T18:17:17;99930;;;10;50
78843;BME280;70542;53.774;-0.352;2023-10-13T18:22:55;99940;;;9;51
78843;BME280;70542;53.774;-0.352;2023-10-13T18:28:34;99940;;;10;50
78843;BME280;70542;53.774;-0.352;2023-10-13T18:34:13;99970;;;11;49
78843;BME280;70542;53.774;-0.352;2023-10-13T18:39:51;99980;;;10;49
78843;BME280;70542;53.774;-0.352;2023-10-13T18:45:30;99990;;;10;50
78843;BME280;70542;53.774;-0.352;2023-10-13T18:51:11;99990;;;9;51
78843;BME280;70542;53.774;-0.352;2023-10-13T18:56:51;100000;;;9;53
78843;BME280;70542;53.774;-0.352;2023-10-13T19:02:34;100010;;;9;53
78843;BME280;70542;53.774;-0.352;2023-10-13T19:08:13;100010;;;10;50
78843;BME280;70542;53.774;-0.352;2023-10-13T19:14:02;100030;;;9;51
78843;BME280;70542;53.774;-0.352;2023-10-13T19:19:44;100040;;;10;49
78843;BME280;70542;53.774;-0.352;2023-10-13T19:25:23;100040;;;9;50
78843;BME280;70542;53.774;-0.352;2023-10-13T19:31:05;100060;;;9;51
78843;BME280;70542;53.774;-0.352;2023-10-13T19:36:44;100060;;;9;51
78843;BME280;70542;53.774;-0.352;2023-10-13T19:42:27;100070;;;9;52
78843;BME280;70542;53.774;-0.352;2023-10-13T19:48:07;100060;;;8;54
78843;BME280;70542;53.774;-0.352;2023-10-13T19:53:50;100080;;;8;54
78843;BME280;70542;53.774;-0.352;2023-10-13T19:59:29;100100;;;8;55
78843;BME280;70542;53.774;-0.352;2023-10-13T20:05:08;100110;;;8;55
78843;BME280;70542;53.774;-0.352;2023-10-13T20:10:48;100130;;;9;53
78843;BME280;70542;53.774;-0.352;2023-10-13T20:16:30;100140;;;8;54
78843;BME280;70542;53.774;-0.352;2023-10-13T20:22:13;100150;;;8;55
78843;BME280;70542;53.774;-0.352;2023-10-13T20:27:55;100150;;;8;55
78843;BME280;70542;53.774;-0.352;2023-10-13T20:33:34;100160;;;8;54
78843;BME280;70542;53.774;-0.352;2023-10-13T20:39:22;100180;;;8;54
78843;BME280;70542;53.774;-0.352;2023-10-13T20:45:00;100200;;;8;55
78843;BME280;70542;53.774;-0.352;2023-10-13T20:50:55;100220;;;9;54
78843;BME280;70542;53.774;-0.352;2023-10-13T20:56:38;100230;;;8;54
78843;BME280;70542;53.774;-0.352;2023-10-13T21:02:17;100240;;;8;55
78843;BME280;70542;53.774;-0.352;2023-10-13T21:08:04;100250;;;8;55
78843;BME280;70542;53.774;-0.352;2023-10-13T21:13:58;100260;;;8;55
78843;BME280;70542;53.774;-0.352;2023-10-13T21:19:44;100270;;;8;55
78843;BME280;70542;53.774;-0.352;2023-10-13T21:25:27;100280;;;9;52
78843;BME280;70542;53.774;-0.352;2023-10-13T21:31:09;100290;;;8;54
78843;BME280;70542;53.774;-0.352;2023-10-13T21:37:00;100300;;;9;53
78843;BME280;70542;53.774;-0.352;2023-10-13T21:42:53;100320;;;8;54
78843;BME280;70542;53.774;-0.352;2023-10-13T21:48:41;100330;;;8;55
78843;BME280;70542;53.774;-0.352;2023-10-13T21:54:32;100330;;;8;55
78843;BME280;70542;53.774;-0.352;2023-10-13T22:00:26;100360;;;9;53
78843;BME280;70542;53.774;-0.352;2023-10-13T22:06:16;100360;;;9;53
78843;BME280;70542;53.774;-0.352;2023-10-13T22:12:08;100370;;;9;51
78843;BME280;70542;53.774;-0.352;2023-10-13T22:17:57;100380;;;8;54
78843;BME280;70542;53.774;-0.352;2023-10-13T22:23:45;100380;;;8;55
78843;BME280;70542;53.774;-0.352;2023-10-13T22:29:46;100400;;;8;54
78843;BME280;70542;53.774;-0.352;2023-10-13T22:35:44;100400;;;9;52
78843;BME280;70542;53.774;-0.352;2023-10-13T22:41:30;100400;;;8;54
78843;BME280;70542;53.774;-0.352;2023-10-13T22:47:31;100410;;;8;55
78843;BME280;70542;53.774;-0.352;2023-10-13T22:53:24;100420;;;8;55
78843;BME280;70542;53.774;-0.352;2023-10-13T23:05:09;100440;;;7;55
78843;BME280;70542;53.774;-0.352;2023-10-13T23:11:02;100460;;;7;56
78843;BME280;70542;53.774;-0.352;2023-10-13T23:16:41;100470;;;7;57
78843;BME280;70542;53.774;-0.352;2023-10-13T23:22:48;100480;;;7;56
78843;BME280;70542;53.774;-0.352;2023-10-13T23:28:47;100490;;;7;56
78843;BME280;70542;53.774;-0.352;2023-10-13T23:34:41;100500;;;8;55
78843;BME280;70542;53.774;-0.352;2023-10-13T23:40:29;100510;;;7;56
78843;BME280;70542;53.774;-0.352;2023-10-13T23:46:23;100520;;;7;56
78843;BME280;70542;53.774;-0.352;2023-10-13T23:52:12;100540;;;8;53
78843;BME280;70542;53.774;-0.352;2023-10-13T23:58:03;100540;;;7;56
